TimeEST,TemperatureF,Dew PointF,Humidity,Sea Level PressureIn,VisibilityMPH,Wind Direction,Wind SpeedMPH,Gust SpeedMPH,PrecipitationIn,Events,Conditions,WindDirDegrees,DateUTC
12:15 AM,37.4,26.6,65,29.78,10.0,West,19.6,28.8,N/A,,Overcast,270,2013-01-01 05:15:00
12:35 AM,37.4,26.6,65,29.77,10.0,West,21.9,27.6,N/A,,Overcast,260,2013-01-01 05:35:00
1:15 AM,37.4,28.4,70,29.76,10.0,West,20.7,28.8,N/A,,Overcast,260,2013-01-01 06:15:00
2:15 AM,37.4,28.4,70,29.76,10.0,West,18.4,26.5,N/A,,Overcast,260,2013-01-01 07:15:00
2:16 AM,37.4,28.4,70,29.76,10.0,West,18.4,26.5,N/A,,Overcast,260,2013-01-01 07:16:00
3:35 AM,37.4,26.6,65,29.75,10.0,West,23.0,29.9,N/A,,Overcast,260,2013-01-01 08:35:00
4:15 AM,37.4,24.8,60,29.73,10.0,West,21.9,26.5,N/A,,Overcast,260,2013-01-01 09:15:00
4:35 AM,37.4,26.6,65,29.73,10.0,West,18.4,26.5,N/A,,Overcast,260,2013-01-01 09:35:00
4:55 AM,37.4,26.6,65,29.75,10.0,West,20.7,28.8,N/A,,Overcast,260,2013-01-01 09:55:00
5:15 AM,37.4,24.8,60,29.75,10.0,West,23.0,29.9,N/A,,Overcast,260,2013-01-01 10:15:00
5:35 AM,37.4,24.8,60,29.74,10.0,West,23.0,32.2,N/A,,Scattered Clouds,260,2013-01-01 10:35:00
5:55 AM,37.4,26.6,65,29.75,10.0,West,21.9,35.7,N/A,,Clear,260,2013-01-01 10:55:00
6:15 AM,37.4,26.6,65,29.75,10.0,West,26.5,33.4,N/A,,Scattered Clouds,270,2013-01-01 11:15:00
6:35 AM,37.4,28.4,70,29.75,10.0,West,23.0,33.4,N/A,,Mostly Cloudy,270,2013-01-01 11:35:00
6:55 AM,37.4,26.6,65,29.76,10.0,West,23.0,34.5,N/A,,Mostly Cloudy,270,2013-01-01 11:55:00
7:35 AM,37.4,26.6,65,29.76,10.0,West,21.9,31.1,N/A,,Overcast,270,2013-01-01 12:35:00
8:55 AM,37.4,26.6,65,29.77,10.0,West,20.7,27.6,N/A,,Mostly Cloudy,270,2013-01-01 13:55:00
9:35 AM,37.4,24.8,60,29.77,10.0,West,21.9,34.5,N/A,,Scattered Clouds,270,2013-01-01 14:35:00
10:15 AM,39.2,24.8,56,29.78,10.0,West,20.7,27.6,N/A,,Clear,280,2013-01-01 15:15:00
10:35 AM,39.2,24.8,56,29.78,10.0,West,19.6,26.5,N/A,,Partly Cloudy,280,2013-01-01 15:35:00
10:55 AM,37.4,21.2,52,29.77,10.0,WNW,19.6,29.9,N/A,,Partly Cloudy,290,2013-01-01 15:55:00
11:15 AM,37.4,23.0,56,29.75,10.0,WNW,20.7,31.1,N/A,,Scattered Clouds,300,2013-01-01 16:15:00
11:55 AM,37.4,19.4,48,29.75,10.0,WNW,24.2,31.1,N/A,,Partly Cloudy,300,2013-01-01 16:55:00
12:15 PM,37.4,19.4,48,29.75,10.0,WNW,23.0,32.2,N/A,,Partly Cloudy,300,2013-01-01 17:15:00
12:35 PM,37.4,19.4,48,29.74,10.0,WNW,23.0,29.9,N/A,,Partly Cloudy,290,2013-01-01 17:35:00
12:55 PM,37.4,19.4,48,29.74,10.0,WNW,20.7,31.1,N/A,,Clear,300,2013-01-01 17:55:00
1:15 PM,37.4,17.6,45,29.75,10.0,WNW,21.9,32.2,N/A,,Partly Cloudy,290,2013-01-01 18:15:00
1:55 PM,37.4,17.6,45,29.74,10.0,WNW,21.9,31.1,N/A,,Partly Cloudy,300,2013-01-01 18:55:00
2:15 PM,35.6,17.6,48,29.74,10.0,WNW,23.0,31.1,N/A,,Clear,290,2013-01-01 19:15:00
2:55 PM,35.6,17.6,48,29.75,10.0,WNW,21.9,29.9,N/A,,Partly Cloudy,290,2013-01-01 19:55:00
3:15 PM,35.6,17.6,48,29.76,10.0,WNW,21.9,29.9,N/A,,Partly Cloudy,300,2013-01-01 20:15:00
4:15 PM,33.8,15.8,48,29.76,10.0,WNW,23.0,28.8,N/A,,Mostly Cloudy,290,2013-01-01 21:15:00
4:56 PM,33.8,17.6,52,29.78,10.0,WNW,23.0,28.8,N/A,,Mostly Cloudy,290,2013-01-01 21:56:00
5:15 PM,33.8,17.6,52,29.79,10.0,WNW,21.9,28.8,N/A,,Mostly Cloudy,290,2013-01-01 22:15:00
5:55 PM,33.8,17.6,52,29.81,10.0,WNW,23.0,28.8,N/A,,Mostly Cloudy,300,2013-01-01 22:55:00
6:15 PM,33.8,15.8,48,29.81,10.0,WNW,20.7,31.1,N/A,,Mostly Cloudy,290,2013-01-01 23:15:00
6:55 PM,32.0,14.0,48,29.84,10.0,WNW,24.2,28.8,N/A,,Mostly Cloudy,300,2013-01-01 23:55:00
7:15 PM,32.0,15.8,51,29.84,10.0,NW,19.6,28.8,N/A,,Mostly Cloudy,310,2013-01-02 00:15:00
7:35 PM,32.0,15.8,51,29.84,10.0,WNW,19.6,31.1,N/A,,Overcast,300,2013-01-02 00:35:00
7:55 PM,30.2,15.8,55,29.85,10.0,NW,20.7,27.6,N/A,,Mostly Cloudy,320,2013-01-02 00:55:00
8:15 PM,30.2,15.8,55,29.86,10.0,NW,23.0,29.9,N/A,,Scattered Clouds,310,2013-01-02 01:15:00
8:35 PM,30.2,15.8,55,29.87,10.0,NW,23.0,29.9,N/A,,Partly Cloudy,310,2013-01-02 01:35:00
8:55 PM,30.2,14.0,51,29.87,10.0,NW,23.0,32.2,N/A,,Partly Cloudy,310,2013-01-02 01:55:00
9:15 PM,28.4,14.0,55,29.87,10.0,WNW,20.7,29.9,N/A,,Partly Cloudy,300,2013-01-02 02:15:00
10:15 PM,28.4,8.6,43,29.89,10.0,WNW,21.9,32.2,N/A,,Partly Cloudy,300,2013-01-02 03:15:00
11:35 PM,26.6,10.4,51,29.90,10.0,WNW,21.9,28.8,N/A,,Partly Cloudy,300,2013-01-02 04:35:00
11:55 PM,26.6,10.4,51,29.91,10.0,WNW,18.4,31.1,N/A,,Clear,300,2013-01-02 04:55:00